createdAt,value
2023-05-10T00:01:46.777Z,97068.13
2023-05-10T00:04:14.679Z,97065.59
2023-05-10T00:06:44.207Z,97072.88
2023-05-10T00:09:11.703Z,97060.22
2023-05-10T00:11:39.231Z,97067.78
2023-05-10T00:14:06.733Z,97072.81
2023-05-10T00:19:01.185Z,97068.63
2023-05-10T00:21:29.343Z,97063.94
2023-05-10T00:23:58.192Z,97062.19
2023-05-10T00:26:25.721Z,97060.53
2023-05-10T00:28:53.270Z,97055.28
2023-05-10T00:31:20.886Z,97048.13
2023-05-10T00:33:48.402Z,97050.75
2023-05-10T00:36:15.877Z,97057.91
2023-05-10T00:38:43.384Z,97055.44
2023-05-10T00:41:12.220Z,97051.09
2023-05-10T00:43:39.693Z,97045.28
2023-05-10T00:46:07.684Z,97047.75
2023-05-10T00:48:36.247Z,97047.09
2023-05-10T00:51:04.518Z,97051.47
2023-05-10T00:53:33.140Z,97049.91
2023-05-10T00:56:01.068Z,97034.56
2023-05-10T00:58:31.806Z,97037.75
2023-05-10T01:01:00.370Z,97049.31
2023-05-10T01:03:28.164Z,97044.09
2023-05-10T01:05:56.092Z,97042.25
2023-05-10T01:08:23.757Z,97051.88
2023-05-10T01:10:51.645Z,97046.38
2023-05-10T01:13:32.351Z,97045.78
2023-05-10T01:16:02.862Z,97052.50
2023-05-10T01:18:32.724Z,97054.38
2023-05-10T01:21:13.079Z,97054.56
2023-05-10T01:24:11.479Z,97053.44
2023-05-10T01:27:09.527Z,97056.03
2023-05-10T01:30:15.356Z,97060.22
2023-05-10T01:32:52.325Z,97058.41
2023-05-10T01:35:28.721Z,97053.44
2023-05-10T01:38:06.204Z,97044.50
2023-05-10T01:40:39.448Z,97055.22
2023-05-10T01:43:19.383Z,97060.06
2023-05-10T01:45:58.222Z,97054.41
2023-05-10T01:48:30.519Z,97051.88
2023-05-10T01:50:59.638Z,97047.66
2023-05-10T01:53:28.450Z,97056.88
2023-05-10T01:55:57.608Z,97051.50
2023-05-10T01:58:29.501Z,97058.66
2023-05-10T02:00:59.309Z,97057.09
2023-05-10T02:03:30.239Z,97050.88
2023-05-10T02:05:59.358Z,97055.31
2023-05-10T02:08:27.918Z,97057.59
2023-05-10T02:10:58.113Z,97054.31
2023-05-10T02:13:27.935Z,97050.38
2023-05-10T02:15:57.083Z,97050.22
2023-05-10T02:18:27.646Z,97049.81
2023-05-10T02:20:58.284Z,97054.94
2023-05-10T02:23:27.201Z,97061.00
2023-05-10T02:25:56.924Z,97055.28
2023-05-10T02:28:26.259Z,97060.69
2023-05-10T02:30:54.865Z,97062.91
2023-05-10T02:33:23.249Z,97075.59
2023-05-10T02:35:52.805Z,97067.09
2023-05-10T02:38:24.498Z,97070.75
2023-05-10T02:40:52.993Z,97085.38
2023-05-10T02:43:23.324Z,97083.34
2023-05-10T02:45:51.176Z,97080.75
2023-05-10T02:48:18.967Z,97082.88
2023-05-10T02:50:47.668Z,97085.84
2023-05-10T02:53:20.400Z,97078.69
2023-05-10T02:55:53.498Z,97078.84
2023-05-10T02:58:21.735Z,97085.97
2023-05-10T03:00:49.238Z,97088.53
2023-05-10T03:03:16.710Z,97083.53
2023-05-10T03:05:44.306Z,97087.94
2023-05-10T03:08:12.132Z,97085.47
2023-05-10T03:10:48.597Z,97081.38
2023-05-10T03:13:31.047Z,97084.63
2023-05-10T03:16:06.667Z,97086.34
2023-05-10T03:18:42.248Z,97087.50
2023-05-10T03:21:13.313Z,97093.47
2023-05-10T03:23:45.043Z,97099.13
2023-05-10T03:26:19.138Z,97091.56
2023-05-10T03:28:50.414Z,97098.34
2023-05-10T03:31:19.043Z,97106.59
2023-05-10T03:33:49.893Z,97105.91
2023-05-10T03:36:17.686Z,97102.00
2023-05-10T03:38:45.201Z,97104.72
2023-05-10T03:41:12.665Z,97108.41
2023-05-10T03:43:40.119Z,97111.53
2023-05-10T03:46:09.109Z,97108.72
2023-05-10T03:48:36.563Z,97117.19
2023-05-10T03:51:04.134Z,97127.84
2023-05-10T03:53:31.802Z,97117.19
2023-05-10T03:55:59.335Z,97121.06
2023-05-10T03:58:26.815Z,97132.34
2023-05-10T04:00:54.267Z,97130.34
2023-05-10T04:03:23.870Z,97137.41
2023-05-10T04:05:59.983Z,97136.91
2023-05-10T04:08:27.626Z,97136.41
2023-05-10T04:10:55.115Z,97136.34
2023-05-10T04:13:23.493Z,97149.16
2023-05-10T04:15:51.042Z,97139.78
2023-05-10T04:18:18.615Z,97140.03
2023-05-10T04:20:47.438Z,97150.09
2023-05-10T04:23:15.167Z,97144.16
2023-05-10T04:25:42.744Z,97149.13
2023-05-10T04:28:10.319Z,97162.59
2023-05-10T04:30:38.024Z,97158.66
2023-05-10T04:33:05.597Z,97165.28
2023-05-10T04:35:33.110Z,97168.31
2023-05-10T04:38:01.906Z,97160.66
2023-05-10T04:40:29.612Z,97165.88
2023-05-10T04:42:57.244Z,97164.56
2023-05-10T04:45:24.682Z,97173.50
2023-05-10T04:47:52.140Z,97178.88
2023-05-10T04:50:19.955Z,97172.06
2023-05-10T04:52:47.435Z,97182.53
2023-05-10T04:55:17.022Z,97182.66
2023-05-10T04:57:44.503Z,97187.28
2023-05-10T05:00:13.143Z,97185.41
2023-05-10T05:02:44.904Z,97184.50
2023-05-10T05:05:12.551Z,97185.66
2023-05-10T05:07:40.371Z,97192.03
2023-05-10T05:10:09.012Z,97182.09
2023-05-10T05:12:37.816Z,97187.72
2023-05-10T05:15:07.295Z,97199.41
2023-05-10T05:17:36.634Z,97205.56
2023-05-10T05:20:05.037Z,97207.34
2023-05-10T05:22:32.378Z,97203.66
2023-05-10T05:25:00.000Z,97201.56
2023-05-10T05:27:28.741Z,97207.59
2023-05-10T05:29:58.506Z,97208.56
2023-05-10T05:32:26.853Z,97217.41
2023-05-10T05:34:54.219Z,97209.31
2023-05-10T05:37:23.442Z,97212.16
2023-05-10T05:39:50.976Z,97214.91
2023-05-10T05:42:19.691Z,97218.34
2023-05-10T05:44:47.407Z,97219.44
2023-05-10T05:47:16.239Z,97223.84
2023-05-10T05:49:46.534Z,97218.03
2023-05-10T05:52:14.357Z,97225.97
2023-05-10T05:54:45.110Z,97222.69
2023-05-10T05:57:12.808Z,97229.97
2023-05-10T05:59:42.800Z,97238.72
2023-05-10T06:02:10.515Z,97241.72
2023-05-10T06:04:39.852Z,97237.22
2023-05-10T06:07:07.684Z,97236.38
2023-05-10T06:09:35.224Z,97256.38
2023-05-10T06:12:02.676Z,97248.28
2023-05-10T06:14:30.126Z,97252.34
2023-05-10T06:16:57.746Z,97253.00
2023-05-10T06:19:25.310Z,97249.53
2023-05-10T06:21:54.131Z,97248.72
2023-05-10T06:24:22.119Z,97250.31
2023-05-10T06:26:50.863Z,97250.00
2023-05-10T06:29:18.478Z,97257.84
2023-05-10T06:31:46.120Z,97253.91
2023-05-10T06:34:14.409Z,97257.78
2023-05-10T06:36:42.061Z,97264.25
2023-05-10T06:39:12.547Z,97258.03
2023-05-10T06:41:40.031Z,97261.09
2023-05-10T06:44:07.481Z,97270.25
2023-05-10T06:46:35.026Z,97262.00
2023-05-10T06:49:02.512Z,97264.03
2023-05-10T06:51:29.978Z,97259.56
2023-05-10T06:54:00.254Z,97266.38
2023-05-10T06:56:29.166Z,97263.22
2023-05-10T06:58:56.734Z,97265.09
2023-05-10T07:01:24.437Z,97252.66
2023-05-10T07:03:51.998Z,97263.81
2023-05-10T07:06:32.260Z,97260.19
2023-05-10T07:09:01.250Z,97267.91
2023-05-10T07:11:30.125Z,97265.69
2023-05-10T07:13:57.636Z,97263.09
2023-05-10T07:16:25.103Z,97266.06
2023-05-10T07:18:53.928Z,97274.00
2023-05-10T07:21:21.869Z,97273.16
2023-05-10T07:23:49.498Z,97279.91
2023-05-10T07:26:17.009Z,97277.88
2023-05-10T07:28:45.811Z,97279.69
2023-05-10T07:31:13.246Z,97290.47
2023-05-10T07:33:40.957Z,97283.91
2023-05-10T07:36:08.728Z,97279.41
2023-05-10T07:38:37.119Z,97293.63
2023-05-10T07:41:05.525Z,97284.81
2023-05-10T07:43:33.004Z,97281.19
2023-05-10T07:46:02.004Z,97282.47
2023-05-10T07:48:29.501Z,97285.16
2023-05-10T07:50:57.281Z,97287.88
2023-05-10T07:53:24.842Z,97293.75
2023-05-10T07:55:52.700Z,97299.16
2023-05-10T07:58:20.430Z,97295.53
2023-05-10T08:00:48.103Z,97296.00
2023-05-10T08:03:17.169Z,97298.41
2023-05-10T08:05:44.706Z,97296.19
2023-05-10T08:08:12.299Z,97294.88
2023-05-10T08:10:40.896Z,97298.56
2023-05-10T08:13:08.324Z,97302.31
2023-05-10T08:15:35.836Z,97304.19
2023-05-10T08:18:03.322Z,97297.28
2023-05-10T08:20:32.126Z,97291.84
2023-05-10T08:22:59.700Z,97295.06
2023-05-10T08:25:27.373Z,97297.09
2023-05-10T08:27:54.876Z,97295.84
2023-05-10T08:30:22.605Z,97308.72
2023-05-10T08:32:50.215Z,97306.06
2023-05-10T08:35:18.314Z,97321.38
2023-05-10T08:37:47.279Z,97323.22
2023-05-10T08:40:17.258Z,97341.03
2023-05-10T08:42:51.388Z,97350.34
2023-05-10T08:45:20.994Z,97344.78
2023-05-10T08:47:48.830Z,97345.25
2023-05-10T08:50:18.318Z,97353.44
2023-05-10T08:52:48.730Z,97355.25
2023-05-10T08:55:17.799Z,97350.59
2023-05-10T08:57:45.527Z,97349.22
2023-05-10T09:00:17.288Z,97346.44
2023-05-10T09:02:46.732Z,97345.72
2023-05-10T09:05:17.224Z,97344.56
2023-05-10T09:07:45.060Z,97347.16
2023-05-10T09:10:15.563Z,97335.06
2023-05-10T09:12:44.883Z,97326.16
2023-05-10T09:15:12.736Z,97321.81
2023-05-10T09:17:42.343Z,97321.75
2023-05-10T09:20:10.173Z,97325.88
2023-05-10T09:22:38.620Z,97321.09
2023-05-10T09:25:07.970Z,97329.84
2023-05-10T09:27:37.351Z,97324.59
2023-05-10T09:30:08.755Z,97323.97
2023-05-10T09:32:40.368Z,97330.97
2023-05-10T09:35:09.466Z,97334.09
2023-05-10T09:37:36.985Z,97332.97
2023-05-10T09:40:08.391Z,97333.75
2023-05-10T09:42:37.247Z,97327.56
2023-05-10T09:45:08.491Z,97318.69
2023-05-10T09:47:37.107Z,97329.78
2023-05-10T09:50:05.583Z,97322.88
2023-05-10T09:52:47.197Z,97324.75
2023-05-10T09:55:14.940Z,97329.00
2023-05-10T09:57:44.129Z,97323.56
2023-05-10T10:00:13.292Z,97312.34
2023-05-10T10:02:41.192Z,97298.94
2023-05-10T10:05:09.490Z,97311.41
2023-05-10T10:07:37.182Z,97312.69
2023-05-10T10:10:05.768Z,97305.09
2023-05-10T10:12:33.306Z,97318.59
2023-05-10T10:15:02.660Z,97320.00
2023-05-10T10:17:32.590Z,97321.81
2023-05-10T10:20:00.611Z,97328.94
2023-05-10T10:22:28.082Z,97323.50
2023-05-10T10:24:57.785Z,97323.75
2023-05-10T10:27:30.627Z,97322.88
2023-05-10T10:30:08.564Z,97325.25
2023-05-10T10:32:49.724Z,97333.25
2023-05-10T10:35:18.153Z,97321.75
2023-05-10T10:37:47.771Z,97324.19
2023-05-10T10:40:25.698Z,97330.84
2023-05-10T10:42:54.515Z,97326.44
2023-05-10T10:45:24.693Z,97337.00
2023-05-10T10:48:21.259Z,97336.34
2023-05-10T10:50:48.757Z,97330.66
2023-05-10T10:53:16.247Z,97334.53
2023-05-10T10:55:50.035Z,97330.13
2023-05-10T11:01:13.902Z,97335.25
2023-05-10T11:03:41.757Z,97328.13
2023-05-10T11:06:09.846Z,97327.50
2023-05-10T11:08:44.701Z,97323.97
2023-05-10T11:11:16.786Z,97326.31
2023-05-10T11:13:50.892Z,97324.00
2023-05-10T11:16:22.247Z,97329.41
2023-05-10T11:18:55.228Z,97336.25
2023-05-10T11:21:23.143Z,97334.78
2023-05-10T11:23:52.664Z,97326.56
2023-05-10T11:26:23.970Z,97329.88
2023-05-10T11:28:51.900Z,97329.59
2023-05-10T11:31:21.857Z,97328.28
2023-05-10T11:33:50.884Z,97331.72
2023-05-10T11:36:19.769Z,97336.09
2023-05-10T11:38:47.508Z,97337.72
2023-05-10T11:41:15.788Z,97338.53
2023-05-10T11:43:43.822Z,97337.97
2023-05-10T11:46:13.886Z,97339.59
2023-05-10T11:48:43.829Z,97341.91
2023-05-10T11:51:12.743Z,97339.97
2023-05-10T11:53:40.318Z,97338.56
2023-05-10T11:56:08.961Z,97341.66
2023-05-10T11:58:37.467Z,97336.25
2023-05-10T12:01:06.791Z,97338.88
2023-05-10T12:03:34.975Z,97335.94
2023-05-10T12:06:04.376Z,97331.41
2023-05-10T12:08:32.683Z,97331.00
2023-05-10T12:11:06.602Z,97318.44
2023-05-10T12:13:34.066Z,97327.41
2023-05-10T12:16:01.676Z,97320.75
2023-05-10T12:18:29.239Z,97326.22
2023-05-10T12:21:06.435Z,97330.00
2023-05-10T12:23:34.300Z,97330.34
2023-05-10T12:26:04.743Z,97322.63
2023-05-10T12:28:32.794Z,97334.44
2023-05-10T12:31:01.719Z,97335.47
2023-05-10T12:33:29.340Z,97341.38
2023-05-10T12:35:57.278Z,97340.88
2023-05-10T12:38:30.258Z,97340.94
2023-05-10T12:40:58.677Z,97339.75
2023-05-10T12:43:26.273Z,97341.31
2023-05-10T12:45:53.778Z,97328.66
2023-05-10T12:48:21.690Z,97326.75
2023-05-10T12:50:49.312Z,97325.34
2023-05-10T12:53:17.438Z,97323.22
2023-05-10T12:55:46.572Z,97327.00
2023-05-10T12:58:24.062Z,97331.25
2023-05-10T13:01:01.873Z,97322.78
2023-05-10T13:03:29.515Z,97326.13
2023-05-10T13:05:57.025Z,97330.53
2023-05-10T13:08:24.662Z,97326.00
2023-05-10T13:10:54.112Z,97321.47
2023-05-10T13:13:21.553Z,97336.78
2023-05-10T13:15:48.970Z,97325.34
2023-05-10T13:18:16.687Z,97323.59
2023-05-10T13:20:45.140Z,97319.97
2023-05-10T13:23:12.744Z,97326.56
2023-05-10T13:25:40.207Z,97331.03
2023-05-10T13:28:09.001Z,97327.75
2023-05-10T13:30:36.459Z,97332.75
2023-05-10T13:33:04.025Z,97335.97
2023-05-10T13:35:31.518Z,97337.56
2023-05-10T13:37:59.058Z,97330.22
2023-05-10T13:40:26.621Z,97341.94
2023-05-10T13:42:54.173Z,97343.72
2023-05-10T13:45:23.018Z,97345.19
2023-05-10T13:47:50.608Z,97336.41
2023-05-10T13:50:18.992Z,97348.06
2023-05-10T13:52:46.468Z,97344.81
2023-05-10T13:55:14.712Z,97361.06
2023-05-10T13:57:43.781Z,97349.50
2023-05-10T14:00:12.208Z,97351.03
2023-05-10T14:02:41.428Z,97348.91
2023-05-10T14:05:09.439Z,97348.69
2023-05-10T14:07:36.952Z,97336.84
2023-05-10T14:10:04.763Z,97342.13
2023-05-10T14:12:32.319Z,97345.91
2023-05-10T14:15:00.034Z,97348.00
2023-05-10T14:17:27.536Z,97354.72
2023-05-10T14:19:56.603Z,97346.69
2023-05-10T14:22:24.040Z,97357.34
2023-05-10T14:24:51.639Z,97372.13
2023-05-10T14:27:19.116Z,97367.69
2023-05-10T14:29:46.551Z,97367.22
2023-05-10T14:32:14.105Z,97360.56
2023-05-10T14:34:41.659Z,97352.44
2023-05-10T14:37:12.261Z,97353.75
2023-05-10T14:39:39.981Z,97367.78
2023-05-10T14:42:07.549Z,97367.75
2023-05-10T14:44:35.053Z,97364.09
2023-05-10T14:47:02.593Z,97366.94
2023-05-10T14:49:30.127Z,97375.84
2023-05-10T14:51:57.732Z,97379.94
2023-05-10T14:54:26.861Z,97383.19
2023-05-10T14:56:54.604Z,97390.22
2023-05-10T14:59:27.362Z,97386.94
2023-05-10T15:01:55.366Z,97383.53
2023-05-10T15:04:23.592Z,97396.59
2023-05-10T15:06:52.329Z,97394.16
2023-05-10T15:09:20.110Z,97390.41
2023-05-10T15:11:49.134Z,97396.63
2023-05-10T15:14:16.659Z,97400.28
2023-05-10T15:16:44.245Z,97396.66
2023-05-10T15:19:11.801Z,97395.81
2023-05-10T15:21:39.552Z,97399.13
2023-05-10T15:24:07.232Z,97399.59
2023-05-10T15:26:34.742Z,97401.34
2023-05-10T15:29:03.597Z,97399.13
2023-05-10T15:31:31.227Z,97407.56
2023-05-10T15:34:00.033Z,97407.94
2023-05-10T15:36:27.600Z,97409.22
2023-05-10T15:38:55.524Z,97408.81
2023-05-10T15:41:23.000Z,97414.44
2023-05-10T15:43:51.134Z,97413.56
2023-05-10T15:46:19.936Z,97418.22
2023-05-10T15:48:47.461Z,97414.34
2023-05-10T15:51:15.436Z,97425.97
2023-05-10T15:53:56.506Z,97422.25
2023-05-10T15:56:30.992Z,97431.31
2023-05-10T15:58:58.494Z,97432.88
2023-05-10T16:01:27.495Z,97434.41
2023-05-10T16:03:55.090Z,97432.00
2023-05-10T16:06:22.673Z,97423.81
2023-05-10T16:08:50.237Z,97426.09
2023-05-10T16:11:17.751Z,97425.78
2023-05-10T16:13:45.191Z,97435.88
2023-05-10T16:16:12.742Z,97429.91
2023-05-10T16:18:41.758Z,97425.91
2023-05-10T16:21:09.275Z,97428.38
2023-05-10T16:23:36.893Z,97433.63
2023-05-10T16:26:04.565Z,97429.16
2023-05-10T16:28:32.418Z,97430.53
2023-05-10T16:30:59.921Z,97433.16
2023-05-10T16:33:27.605Z,97430.63
2023-05-10T16:35:56.596Z,97435.94
2023-05-10T16:38:24.048Z,97436.31
2023-05-10T16:40:51.544Z,97443.22
2023-05-10T16:43:19.164Z,97447.94
2023-05-10T16:45:46.765Z,97433.00
2023-05-10T16:48:14.312Z,97436.78
2023-05-10T16:50:44.472Z,97436.03
2023-05-10T16:53:13.315Z,97445.22
2023-05-10T16:55:41.196Z,97443.75
2023-05-10T16:58:09.890Z,97437.84
2023-05-10T17:00:37.367Z,97444.16
2023-05-10T17:03:05.273Z,97439.06
2023-05-10T17:05:32.781Z,97448.94
2023-05-10T17:08:00.806Z,97457.53
2023-05-10T17:10:29.726Z,97457.56
2023-05-10T17:12:57.314Z,97466.47
2023-05-10T17:15:24.839Z,97458.19
2023-05-10T17:17:52.526Z,97462.81
2023-05-10T17:20:20.315Z,97461.41
2023-05-10T17:22:47.924Z,97464.47
2023-05-10T17:25:15.905Z,97467.31
2023-05-10T17:27:44.991Z,97471.78
2023-05-10T17:30:13.680Z,97475.50
2023-05-10T17:32:41.232Z,97472.34
2023-05-10T17:35:09.914Z,97480.81
2023-05-10T17:37:37.372Z,97469.72
2023-05-10T17:40:07.723Z,97478.66
2023-05-10T17:42:35.197Z,97479.06
2023-05-10T17:45:04.291Z,97486.50
2023-05-10T17:47:31.939Z,97483.47
2023-05-10T17:49:59.396Z,97489.44
2023-05-10T17:52:26.950Z,97494.34
2023-05-10T17:54:54.387Z,97494.44
2023-05-10T17:57:22.260Z,97503.00
2023-05-10T17:59:49.793Z,97500.81
2023-05-10T18:02:18.671Z,97499.88
2023-05-10T18:04:46.204Z,97508.81
2023-05-10T18:07:13.882Z,97507.31
2023-05-10T18:09:41.347Z,97508.44
2023-05-10T18:12:08.927Z,97509.28
2023-05-10T18:14:41.253Z,97507.19
2023-05-10T18:17:10.382Z,97515.19
2023-05-10T18:19:39.282Z,97510.72
2023-05-10T18:22:08.945Z,97509.41
2023-05-10T18:24:40.314Z,97515.03
2023-05-10T18:27:08.916Z,97519.03
2023-05-10T18:29:37.322Z,97517.50
2023-05-10T18:32:04.930Z,97517.72
2023-05-10T18:34:32.394Z,97517.69
2023-05-10T18:37:02.390Z,97516.94
2023-05-10T18:39:30.580Z,97523.31
2023-05-10T18:42:00.483Z,97516.81
2023-05-10T18:44:29.206Z,97514.88
2023-05-10T18:46:56.745Z,97516.75
2023-05-10T18:49:24.299Z,97521.56
2023-05-10T18:51:52.005Z,97524.81
2023-05-10T18:54:23.328Z,97533.16
2023-05-10T18:56:50.981Z,97539.00
2023-05-10T18:59:18.563Z,97534.94
2023-05-10T19:01:46.162Z,97532.69
2023-05-10T19:04:13.745Z,97538.22
2023-05-10T19:06:44.255Z,97537.91
2023-05-10T19:09:11.869Z,97536.63
2023-05-10T19:11:43.143Z,97540.16
2023-05-10T19:14:10.679Z,97547.06
2023-05-10T19:16:38.424Z,97553.97
2023-05-10T19:19:08.179Z,97551.41
2023-05-10T19:21:35.971Z,97557.03
2023-05-10T19:24:04.688Z,97545.44
2023-05-10T19:26:32.252Z,97552.56
2023-05-10T19:29:02.732Z,97559.06
2023-05-10T19:31:30.910Z,97546.38
2023-05-10T19:34:00.897Z,97553.75
2023-05-10T19:36:28.691Z,97562.31
2023-05-10T19:38:57.888Z,97560.13
2023-05-10T19:41:25.636Z,97557.91
2023-05-10T19:43:53.160Z,97559.31
2023-05-10T19:46:22.047Z,97561.44
2023-05-10T19:48:50.040Z,97555.56
2023-05-10T19:51:17.726Z,97555.25
2023-05-10T19:53:45.232Z,97564.19
2023-05-10T19:56:12.861Z,97550.38
2023-05-10T19:58:40.906Z,97553.56
2023-05-10T20:01:08.436Z,97552.66
2023-05-10T20:03:37.372Z,97551.38
2023-05-10T20:06:05.274Z,97558.88
2023-05-10T20:08:32.739Z,97555.56
2023-05-10T20:11:02.516Z,97553.84
2023-05-10T20:13:30.782Z,97557.69
2023-05-10T20:15:59.373Z,97556.09
2023-05-10T20:18:27.204Z,97555.31
2023-05-10T20:20:56.714Z,97557.75
2023-05-10T20:23:24.318Z,97553.91
2023-05-10T20:25:51.915Z,97554.38
2023-05-10T20:28:23.874Z,97554.53
2023-05-10T20:30:53.687Z,97557.69
2023-05-10T20:33:21.816Z,97550.69
2023-05-10T20:35:51.096Z,97564.13
2023-05-10T20:38:20.934Z,97552.44
2023-05-10T20:40:49.023Z,97545.59
2023-05-10T20:43:16.500Z,97555.72
2023-05-10T20:45:43.966Z,97550.13
2023-05-10T20:48:11.594Z,97556.09
2023-05-10T20:50:39.311Z,97563.31
2023-05-10T20:53:06.913Z,97561.66
2023-05-10T20:55:35.969Z,97558.06
2023-05-10T20:58:04.937Z,97552.91
2023-05-10T21:00:32.822Z,97559.50
2023-05-10T21:03:00.314Z,97544.44
2023-05-10T21:05:27.930Z,97559.41
2023-05-10T21:07:55.523Z,97553.94
2023-05-10T21:10:23.055Z,97550.19
2023-05-10T21:12:51.928Z,97550.06
2023-05-10T21:15:19.380Z,97546.75
2023-05-10T21:17:46.876Z,97539.66
2023-05-10T21:20:14.959Z,97542.41
2023-05-10T21:22:42.654Z,97540.97
2023-05-10T21:25:10.772Z,97536.13
2023-05-10T21:27:38.326Z,97537.53
2023-05-10T21:30:08.651Z,97543.84
2023-05-10T21:32:36.709Z,97543.53
2023-05-10T21:35:04.378Z,97547.94
2023-05-10T21:37:31.846Z,97537.47
2023-05-10T21:39:59.285Z,97544.34
2023-05-10T21:42:26.849Z,97534.91
2023-05-10T21:44:54.499Z,97539.63
2023-05-10T21:47:23.352Z,97536.34
2023-05-10T21:49:51.383Z,97537.59
2023-05-10T21:52:18.876Z,97539.63
2023-05-10T21:54:46.380Z,97535.75
2023-05-10T21:57:14.015Z,97544.06
2023-05-10T21:59:41.652Z,97538.56
2023-05-10T22:02:09.226Z,97532.97
2023-05-10T22:04:38.035Z,97542.91
2023-05-10T22:07:05.534Z,97540.56
2023-05-10T22:09:32.982Z,97538.50
2023-05-10T22:12:00.537Z,97539.00
2023-05-10T22:14:28.031Z,97527.72
2023-05-10T22:16:55.635Z,97532.28
2023-05-10T22:19:23.122Z,97539.00
2023-05-10T22:21:51.930Z,97536.75
2023-05-10T22:24:19.554Z,97546.06
2023-05-10T22:26:46.979Z,97544.91
2023-05-10T22:29:14.447Z,97536.66
2023-05-10T22:31:41.941Z,97530.25
2023-05-10T22:34:09.445Z,97533.72
2023-05-10T22:36:37.231Z,97538.34
2023-05-10T22:39:06.078Z,97543.06
2023-05-10T22:41:34.070Z,97538.59
2023-05-10T22:44:02.239Z,97535.44
2023-05-10T22:46:30.128Z,97544.63
2023-05-10T22:48:57.621Z,97533.72
2023-05-10T22:51:25.107Z,97538.78
2023-05-10T22:53:52.522Z,97543.59
2023-05-10T22:56:21.681Z,97546.94
2023-05-10T22:58:49.281Z,97546.22
2023-05-10T23:01:17.009Z,97547.69
2023-05-10T23:03:44.607Z,97551.88
2023-05-10T23:06:12.069Z,97543.34
2023-05-10T23:08:39.651Z,97540.63
2023-05-10T23:11:07.093Z,97540.31
2023-05-10T23:13:35.897Z,97545.22
2023-05-10T23:16:06.980Z,97543.63
2023-05-10T23:18:34.849Z,97546.41
2023-05-10T23:21:02.429Z,97551.91
2023-05-10T23:23:30.027Z,97550.03
2023-05-10T23:25:57.621Z,97560.97
2023-05-10T23:28:25.117Z,97570.59
2023-05-10T23:30:57.339Z,97560.19
2023-05-10T23:33:25.861Z,97564.72
2023-05-10T23:35:53.959Z,97562.94
2023-05-10T23:38:21.596Z,97565.19
2023-05-10T23:40:49.965Z,97555.34
2023-05-10T23:43:17.624Z,97555.69
2023-05-10T23:45:53.391Z,97551.81
2023-05-10T23:48:22.396Z,97550.13
2023-05-10T23:50:50.573Z,97550.88
2023-05-10T23:53:18.266Z,97550.72
2023-05-10T23:55:46.302Z,97547.19
2023-05-10T23:58:13.875Z,97548.25
